CST,Max TemperatureF,Mean TemperatureF,Min TemperatureF,Max Dew PointF,MeanDew PointF,Min DewpointF,Max Humidity, Mean Humidity, Min Humidity, Max Sea Level PressureIn, Mean Sea Level PressureIn, Min Sea Level PressureIn, Max VisibilityMiles, Mean VisibilityMiles, Min VisibilityMiles, Max Wind SpeedMPH, Mean Wind SpeedMPH, Max Gust SpeedMPH,PrecipitationIn, CloudCover, Events, WindDirDegrees
2012-11-1,84,65,46,57,48,43,93,59,25,30.09,30.02,29.94,10,10,9,13,4,17,0.00,0,,203
2012-11-2,85,71,56,59,54,51,93,63,32,29.99,29.93,29.85,10,10,10,20,8,26,0.00,0,,188
2012-11-3,82,69,55,61,56,48,93,67,41,30.15,30.02,29.91,10,10,10,12,5,14,0.00,1,Thunderstorm,128
2012-11-4,77,62,47,53,49,45,86,64,41,30.17,30.10,30.06,10,10,10,9,3,10,0.00,0,,80
2012-11-5,78,63,48,57,47,39,93,60,26,30.14,30.08,30.04,10,10,4,20,6,26,0.00,0,Rain,7
2012-11-6,82,61,40,48,42,37,82,53,23,30.20,30.13,30.08,10,10,5,13,4,17,0.00,0,,226
2012-11-7,83,63,42,50,45,40,89,57,24,30.19,30.09,30.00,10,10,10,16,5,21,0.00,0,,189
2012-11-8,85,73,60,56,52,48,65,48,31,30.02,29.94,29.88,10,10,10,25,15,33,0.00,0,,189
2012-11-9,82,72,62,59,57,53,84,63,42,30.01,29.91,29.84,10,10,10,23,14,30,0.00,0,,184
2012-11-10,83,74,65,59,56,52,73,54,34,29.87,29.77,29.69,10,10,10,31,20,40,0.00,1,,178
2012-11-11,71,58,44,61,36,11,81,49,17,30.27,29.96,29.69,10,10,10,28,13,32,T,3,Rain,282
2012-11-12,58,43,28,32,25,18,85,56,26,30.51,30.43,30.30,10,10,10,12,5,16,0.00,0,,57
2012-11-13,61,46,30,25,20,15,69,43,17,30.47,30.38,30.26,10,10,10,14,5,18,0.00,2,,145
2012-11-14,65,46,26,37,27,18,71,51,31,30.43,30.33,30.23,10,10,10,8,2,13,0.00,0,,204
2012-11-15,70,52,34,47,41,31,92,68,44,30.27,30.22,30.15,10,10,10,15,4,20,0.00,1,,188
2012-11-16,69,56,43,47,44,38,96,71,45,30.38,30.30,30.25,10,10,10,12,4,15,0.00,3,,92
2012-11-17,70,58,46,45,39,32,71,54,36,30.31,30.25,30.19,10,10,10,17,6,21,0.00,4,,143
2012-11-18,70,58,45,51,45,36,83,67,51,30.21,30.16,30.11,10,10,10,22,7,26,0.00,1,,158
2012-11-19,80,63,45,55,48,43,100,67,33,30.19,30.14,30.07,10,8,2,16,5,22,0.00,1,,217
2012-11-20,80,63,46,55,42,26,100,57,14,30.24,30.17,30.11,10,8,1,13,5,22,0.00,0,,255
2012-11-21,78,60,42,57,45,32,73,56,38,30.25,30.16,30.06,10,10,10,18,7,24,0.00,1,,187
2012-11-22,81,70,58,56,52,47,75,56,36,30.08,30.03,29.95,10,10,10,23,11,28,0.00,1,,193
2012-11-23,65,51,37,57,33,23,78,51,23,30.45,30.34,30.08,10,10,10,26,13,35,0.00,5,,17
2012-11-24,69,50,31,40,29,22,72,46,20,30.45,30.29,30.06,10,10,10,20,6,24,0.00,1,,215
2012-11-25,79,66,52,51,43,33,65,47,28,30.04,29.92,29.82,10,10,10,24,16,29,0.00,0,,203
2012-11-26,79,64,48,55,43,29,93,58,23,30.29,30.02,29.85,10,9,3,22,12,38,0.00,0,,307
2012-11-27,59,47,35,33,27,23,70,52,33,30.48,30.38,30.30,10,10,10,18,7,24,0.00,1,,5
2012-11-28,74,54,33,43,37,28,76,55,33,30.37,30.28,30.20,10,10,10,15,6,21,0.00,0,,193
2012-11-29,71,59,46,52,48,41,86,70,53,30.19,30.12,30.05,10,10,9,18,9,24,0.00,0,,190
2012-11-30,78,66,53,55,53,48,93,66,39,30.16,30.07,29.97,10,9,6,18,11,22,0.00,4,,203